createdAt,value
2016-02-19T00:00:43.174Z,86.22
2016-02-19T00:01:43.146Z,85.94
2016-02-19T00:02:43.117Z,86.18
2016-02-19T00:03:43.088Z,85.94
2016-02-19T00:04:43.060Z,85.85
2016-02-19T00:05:43.016Z,86.04
2016-02-19T00:06:42.987Z,86.18
2016-02-19T00:07:42.960Z,86.08
2016-02-19T00:08:42.930Z,86.08
2016-02-19T00:09:42.902Z,86.08
2016-02-19T00:10:42.873Z,85.99
2016-02-19T00:11:42.845Z,86.08
2016-02-19T00:12:42.801Z,86.27
2016-02-19T00:13:42.787Z,86.36
2016-02-19T00:14:42.743Z,86.13
2016-02-19T00:15:42.714Z,85.89
2016-02-19T00:16:42.686Z,86.36
2016-02-19T00:17:42.657Z,85.89
2016-02-19T00:18:42.629Z,86.27
2016-02-19T00:19:42.600Z,86.18
2016-02-19T00:20:42.556Z,86.18
2016-02-19T00:21:42.528Z,85.89
2016-02-19T00:22:42.499Z,85.7
2016-02-19T00:23:42.486Z,85.8
2016-02-19T00:24:42.442Z,85.8
2016-02-19T00:25:42.413Z,85.7
2016-02-19T00:26:42.386Z,85.99
2016-02-19T00:27:42.356Z,85.7
2016-02-19T00:28:42.327Z,85.61
2016-02-19T00:29:42.283Z,85.99
2016-02-19T00:30:42.259Z,85.8
2016-02-19T00:31:42.231Z,85.7
2016-02-19T00:32:42.202Z,85.99
2016-02-19T00:33:42.173Z,85.99
2016-02-19T00:34:42.144Z,85.89
2016-02-19T00:35:42.117Z,85.99
2016-02-19T00:36:42.072Z,85.61
2016-02-19T00:37:42.042Z,85.32
2016-02-19T00:38:42.015Z,85.51
2016-02-19T00:39:41.986Z,85.61
2016-02-19T00:40:41.958Z,85.51
2016-02-19T00:41:41.929Z,85.04
2016-02-19T00:42:41.900Z,84.94
2016-02-19T00:43:41.872Z,85.13
2016-02-19T00:44:41.844Z,85.23
2016-02-19T00:45:41.814Z,84.75
2016-02-19T00:46:41.786Z,84.94
2016-02-19T00:47:41.741Z,84.94
2016-02-19T00:48:41.730Z,84.85
2016-02-19T00:49:41.685Z,84.56
2016-02-19T00:50:41.657Z,84.47
2016-02-19T00:51:41.628Z,84.56
2016-02-19T00:52:41.599Z,84.75
2016-02-19T00:53:41.571Z,84.47
2016-02-19T00:54:41.543Z,84.66
2016-02-19T00:55:41.513Z,84.66
2016-02-19T00:56:41.485Z,84.38
2016-02-19T00:57:41.441Z,84.38
2016-02-19T00:58:41.412Z,84.51
2016-02-19T00:59:41.384Z,84.51
2016-02-19T01:00:41.355Z,84.13
2016-02-19T01:01:41.326Z,84.23
2016-02-19T01:02:41.298Z,84.28
2016-02-19T01:03:41.270Z,84.23
2016-02-19T01:04:41.240Z,83.9
2016-02-19T01:05:41.205Z,83.85
2016-02-19T01:06:41.177Z,83.9
2016-02-19T01:07:41.148Z,83.62
2016-02-19T01:08:41.120Z,83.85
2016-02-19T01:09:41.091Z,83.75
2016-02-19T01:10:41.062Z,84.13
2016-02-19T01:11:41.034Z,83.75
2016-02-19T01:12:41.006Z,83.94
2016-02-19T01:13:40.977Z,84.32
2016-02-19T01:14:40.932Z,84.32
2016-02-19T01:15:40.904Z,83.37
2016-02-19T01:16:40.876Z,83.28
2016-02-19T01:17:40.847Z,83.94
2016-02-19T01:18:40.818Z,83.85
2016-02-19T01:19:40.789Z,84.04
2016-02-19T01:20:40.761Z,84.04
2016-02-19T01:21:40.734Z,84.04
2016-02-19T01:22:40.704Z,84.04
2016-02-19T01:23:40.675Z,84.23
2016-02-19T01:24:40.648Z,84.13
2016-02-19T01:25:40.619Z,83.47
2016-02-19T01:26:40.590Z,83.66
2016-02-19T01:27:40.561Z,83.85
2016-02-19T01:28:40.517Z,83.56
2016-02-19T01:29:40.489Z,83.56
2016-02-19T01:30:40.461Z,83.56
2016-02-19T01:31:40.433Z,83.56
2016-02-19T01:32:40.403Z,83.47
2016-02-19T01:33:40.374Z,83.56
2016-02-19T01:34:40.346Z,83.56
2016-02-19T01:35:40.318Z,83.47
2016-02-19T01:36:40.288Z,83.85
2016-02-19T01:37:40.260Z,83.56
2016-02-19T01:38:40.232Z,83.37
2016-02-19T01:39:40.203Z,83.85
2016-02-19T01:40:40.175Z,83.75
2016-02-19T01:41:40.146Z,83.75
2016-02-19T01:42:40.101Z,83.18
2016-02-19T01:43:40.074Z,82.9
2016-02-19T01:44:40.060Z,83.28
2016-02-19T01:45:40.016Z,83.28
2016-02-19T01:46:39.988Z,83.18
2016-02-19T01:47:39.959Z,83.37
2016-02-19T01:48:39.931Z,82.9
2016-02-19T01:49:39.902Z,83
2016-02-19T01:50:39.873Z,82.81
2016-02-19T01:51:39.845Z,83.09
2016-02-19T01:52:39.817Z,83.09
2016-02-19T01:53:39.785Z,83
2016-02-19T01:54:39.742Z,83
2016-02-19T01:55:39.728Z,83
2016-02-19T01:56:39.684Z,83
2016-02-19T01:57:39.655Z,82.81
2016-02-19T01:58:39.627Z,83
2016-02-19T01:59:39.597Z,83
2016-02-19T02:00:39.569Z,83
2016-02-19T02:01:39.556Z,82.71
2016-02-19T02:02:39.512Z,82.81
2016-02-19T02:03:39.483Z,82.71
2016-02-19T02:04:39.455Z,82.71
2016-02-19T02:05:39.442Z,82.9
2016-02-19T02:06:39.398Z,82.81
2016-02-19T02:07:39.369Z,82.81
2016-02-19T02:08:39.341Z,82.9
2016-02-19T02:09:39.297Z,83
2016-02-19T02:10:39.268Z,82.9
2016-02-19T02:11:39.255Z,82.62
2016-02-19T02:12:39.210Z,82.43
2016-02-19T02:13:39.183Z,82.14
2016-02-19T02:14:39.154Z,82.24
2016-02-19T02:15:39.125Z,82.33
2016-02-19T02:16:39.097Z,82.43
2016-02-19T02:17:39.068Z,81.95
2016-02-19T02:18:39.040Z,82.14
2016-02-19T02:19:39.012Z,81.86
2016-02-19T02:20:38.982Z,81.86
2016-02-19T02:21:38.939Z,81.57
2016-02-19T02:22:38.910Z,81.67
2016-02-19T02:23:38.882Z,81.76
2016-02-19T02:24:38.853Z,81.38
2016-02-19T02:25:38.824Z,81.38
2016-02-19T02:26:38.795Z,81.29
2016-02-19T02:27:38.767Z,81.57
2016-02-19T02:28:38.739Z,81.2
2016-02-19T02:29:38.711Z,81.1
2016-02-19T02:30:38.681Z,81.38
2016-02-19T02:31:38.652Z,81.48
2016-02-19T02:32:38.625Z,81.57
2016-02-19T02:33:38.596Z,81.1
2016-02-19T02:34:38.566Z,81.67
2016-02-19T02:35:38.539Z,81.1
2016-02-19T02:36:38.494Z,80.82
2016-02-19T02:37:38.466Z,81.1
2016-02-19T02:38:38.437Z,81.1
2016-02-19T02:39:38.408Z,81.01
2016-02-19T02:40:38.380Z,80.53
2016-02-19T02:41:38.351Z,80.82
2016-02-19T02:42:38.324Z,80.72
2016-02-19T02:43:38.289Z,80.77
2016-02-19T02:44:38.254Z,80.87
2016-02-19T02:45:38.223Z,80.25
2016-02-19T02:46:38.203Z,80.02
2016-02-19T02:47:38.159Z,79.77
2016-02-19T02:48:38.130Z,79.77
2016-02-19T02:49:38.101Z,80.15
2016-02-19T02:50:38.073Z,79.55
2016-02-19T02:51:38.045Z,79.87
2016-02-19T02:52:38.016Z,79.64
2016-02-19T02:53:37.987Z,79.49
2016-02-19T02:54:37.959Z,79.17
2016-02-19T02:55:37.924Z,79.07
2016-02-19T02:56:37.895Z,79.07
2016-02-19T02:57:37.867Z,78.79
2016-02-19T02:58:37.837Z,78.92
2016-02-19T02:59:37.809Z,78.79
2016-02-19T03:00:37.780Z,78.88
2016-02-19T03:01:37.753Z,78.79
2016-02-19T03:02:37.723Z,78.5
2016-02-19T03:03:37.680Z,78.41
2016-02-19T03:04:37.650Z,78.31
2016-02-19T03:05:37.622Z,78.5
2016-02-19T03:06:37.594Z,78.59
2016-02-19T03:07:37.566Z,78.59
2016-02-19T03:08:37.537Z,78.41
2016-02-19T03:09:37.508Z,78.31
2016-02-19T03:10:37.479Z,78.22
2016-02-19T03:11:37.451Z,78.5
2016-02-19T03:12:37.422Z,78.5
2016-02-19T03:13:37.377Z,78.5
2016-02-19T03:14:37.349Z,78.5
2016-02-19T03:15:37.321Z,78.22
2016-02-19T03:16:37.292Z,78.41
2016-02-19T03:17:37.264Z,78.22
2016-02-19T03:18:37.235Z,78.22
2016-02-19T03:19:37.207Z,78.59
2016-02-19T03:20:37.178Z,78.69
2016-02-19T03:21:37.149Z,78.79
2016-02-19T03:22:37.121Z,78.69
2016-02-19T03:23:37.076Z,78.69
2016-02-19T03:24:37.048Z,78.03
2016-02-19T03:25:37.020Z,78.03
2016-02-19T03:26:36.991Z,77.94
2016-02-19T03:27:36.963Z,78.03
2016-02-19T03:28:36.934Z,77.97
2016-02-19T03:29:36.905Z,77.94
2016-02-19T03:30:36.877Z,78.22
2016-02-19T03:31:36.848Z,78.13
2016-02-19T03:32:36.820Z,78.13
2016-02-19T03:33:36.775Z,77.94
2016-02-19T03:34:36.747Z,78.31
2016-02-19T03:35:36.719Z,78.22
2016-02-19T03:36:36.752Z,77.75
2016-02-19T03:37:36.662Z,77.84
2016-02-19T03:38:36.633Z,77.5
2016-02-19T03:39:36.605Z,76.32
2016-02-19T03:40:36.575Z,76.51
2016-02-19T03:41:36.547Z,76.04
2016-02-19T03:42:36.518Z,76.14
2016-02-19T03:43:36.490Z,75.76
2016-02-19T03:44:36.461Z,75.38
2016-02-19T03:45:36.417Z,75.28
2016-02-19T03:46:36.389Z,75.09
2016-02-19T03:47:36.360Z,74.71
2016-02-19T03:48:36.332Z,74.52
2016-02-19T03:49:36.303Z,74.43
2016-02-19T03:50:36.274Z,74.24
2016-02-19T03:51:36.246Z,74.43
2016-02-19T03:52:36.217Z,73.86
2016-02-19T03:53:36.189Z,73.71
2016-02-19T03:54:36.160Z,73.8
2016-02-19T03:55:36.131Z,73.77
2016-02-19T03:56:36.088Z,73.33
2016-02-19T03:57:36.059Z,73.3
2016-02-19T03:58:36.046Z,73.52
2016-02-19T03:59:36.001Z,73.2
2016-02-19T04:00:35.973Z,72.73
2016-02-19T04:01:35.961Z,73.01
2016-02-19T04:02:35.916Z,72.82
2016-02-19T04:03:35.887Z,72.82
2016-02-19T04:04:35.859Z,72.53
2016-02-19T04:05:35.830Z,72.63
2016-02-19T04:06:35.802Z,72.63
2016-02-19T04:07:35.773Z,72.34
2016-02-19T04:08:35.744Z,72.44
2016-02-19T04:09:35.700Z,72.44
2016-02-19T04:10:35.672Z,72.63
2016-02-19T04:11:35.643Z,72.53
2016-02-19T04:12:35.615Z,72.53
2016-02-19T04:13:35.586Z,72.06
2016-02-19T04:14:35.558Z,72.16
2016-02-19T04:15:35.534Z,72.34
2016-02-19T04:16:35.490Z,72.25
2016-02-19T04:17:35.462Z,72.34
2016-02-19T04:18:35.432Z,72.25
2016-02-19T04:19:35.404Z,72.16
2016-02-19T04:20:35.376Z,72.16
2016-02-19T04:21:35.347Z,72.16
2016-02-19T04:22:35.318Z,72.44
2016-02-19T04:23:35.290Z,71.69
2016-02-19T04:24:35.262Z,71.59
2016-02-19T04:25:35.233Z,71.88
2016-02-19T04:26:35.189Z,71.97
2016-02-19T04:27:35.175Z,71.88
2016-02-19T04:28:35.131Z,71.4
2016-02-19T04:29:35.118Z,71.59
2016-02-19T04:30:35.075Z,71.5
2016-02-19T04:31:35.045Z,71.59
2016-02-19T04:32:35.017Z,71.59
2016-02-19T04:33:34.989Z,71.69
2016-02-19T04:34:34.960Z,71.59
2016-02-19T04:35:34.931Z,71.59
2016-02-19T04:36:34.903Z,71.69
2016-02-19T04:37:34.874Z,71.69
2016-02-19T04:38:34.830Z,71.59
2016-02-19T04:39:34.801Z,71.59
2016-02-19T04:40:34.774Z,71.59
2016-02-19T04:41:34.744Z,71.4
2016-02-19T04:42:34.716Z,71.5
2016-02-19T04:43:34.688Z,71.59
2016-02-19T04:44:34.659Z,71.5
2016-02-19T04:45:34.630Z,71.4
2016-02-19T04:46:34.602Z,71.5
2016-02-19T04:47:34.573Z,71.5
2016-02-19T04:48:34.545Z,71.5
2016-02-19T04:49:34.500Z,71.02
2016-02-19T04:50:34.487Z,71.31
2016-02-19T04:51:34.443Z,71.02
2016-02-19T04:52:34.415Z,71.31
2016-02-19T04:53:34.387Z,71.02
2016-02-19T04:54:34.357Z,71.31
2016-02-19T04:55:34.328Z,71.02
2016-02-19T04:56:34.301Z,71.31
2016-02-19T04:57:34.272Z,71.02
2016-02-19T04:58:34.228Z,71.21
2016-02-19T04:59:34.199Z,71.21
2016-02-19T05:00:34.170Z,71.21
2016-02-19T05:01:34.142Z,71.21
2016-02-19T05:02:34.113Z,71.21
2016-02-19T05:03:34.086Z,71.21
2016-02-19T05:04:34.056Z,71.21
2016-02-19T05:05:34.027Z,70.93
2016-02-19T05:06:34.000Z,71.02
2016-02-19T05:07:33.971Z,70.93
2016-02-19T05:08:33.927Z,70.93
2016-02-19T05:09:33.913Z,71.12
2016-02-19T05:10:33.869Z,71.21
2016-02-19T05:11:33.841Z,71.12
2016-02-19T05:12:33.812Z,71.02
2016-02-19T05:13:33.784Z,71.02
2016-02-19T05:14:33.755Z,71.02
2016-02-19T05:15:33.726Z,71.21
2016-02-19T05:16:33.699Z,71.12
2016-02-19T05:17:33.669Z,71.21
2016-02-19T05:18:33.641Z,71.21
2016-02-19T05:19:33.596Z,71.02
2016-02-19T05:20:33.568Z,71.02
2016-02-19T05:21:33.525Z,71.59
2016-02-19T05:22:33.481Z,71.4
2016-02-19T05:23:33.436Z,71.59
2016-02-19T05:24:33.392Z,71.59
2016-02-19T05:25:33.347Z,71.59
2016-02-19T05:26:33.313Z,71.5
2016-02-19T05:27:33.278Z,71.4
2016-02-19T05:28:33.243Z,71.88
2016-02-19T05:29:33.194Z,71.4
2016-02-19T05:30:33.160Z,71.4
2016-02-19T05:31:33.129Z,71.88
2016-02-19T05:32:33.098Z,71.59
2016-02-19T05:33:33.068Z,71.59
2016-02-19T05:34:33.038Z,71.78
2016-02-19T05:35:33.007Z,71.88
2016-02-19T05:36:32.977Z,71.88
2016-02-19T05:37:32.948Z,71.5
2016-02-19T05:38:32.919Z,71.5
2016-02-19T05:39:32.874Z,71.69
2016-02-19T05:40:32.844Z,71.88
2016-02-19T05:41:32.817Z,71.69
2016-02-19T05:42:32.787Z,71.5
2016-02-19T05:43:32.759Z,71.78
2016-02-19T05:44:32.731Z,71.59
2016-02-19T05:45:32.702Z,71.69
2016-02-19T05:46:32.673Z,71.59
2016-02-19T05:47:32.645Z,71.59
2016-02-19T05:48:32.616Z,71.4
2016-02-19T05:49:32.588Z,71.31
2016-02-19T05:50:32.543Z,71.5
2016-02-19T05:51:32.515Z,71.59
2016-02-19T05:52:32.486Z,71.69
2016-02-19T05:53:32.458Z,71.59
2016-02-19T05:54:32.430Z,71.69
2016-02-19T05:55:32.400Z,71.88
2016-02-19T05:56:32.372Z,71.97
2016-02-19T05:57:32.343Z,71.78
2016-02-19T05:58:32.316Z,71.97
2016-02-19T05:59:32.286Z,71.59
2016-02-19T06:00:32.257Z,71.59
2016-02-19T06:01:32.213Z,72.16
2016-02-19T06:02:32.185Z,71.5
2016-02-19T06:03:32.157Z,71.59
2016-02-19T06:04:32.129Z,71.69
2016-02-19T06:05:32.099Z,71.4
2016-02-19T06:06:32.062Z,71.4
2016-02-19T06:07:32.050Z,71.4
2016-02-19T06:08:32.005Z,71.21
2016-02-19T06:09:31.976Z,71.21
2016-02-19T06:10:31.947Z,71.59
2016-02-19T06:11:31.920Z,71.5
2016-02-19T06:12:31.891Z,71.59
2016-02-19T06:13:31.862Z,71.59
2016-02-19T06:14:31.833Z,71.59
2016-02-19T06:15:31.805Z,71.69
2016-02-19T06:16:31.777Z,71.5
2016-02-19T06:17:31.747Z,71.5
2016-02-19T06:18:31.705Z,71.4
2016-02-19T06:19:31.675Z,71.69
2016-02-19T06:20:31.646Z,71.5
2016-02-19T06:21:31.618Z,71.69
2016-02-19T06:22:31.590Z,71.5
2016-02-19T06:23:31.560Z,71.69
2016-02-19T06:24:31.532Z,71.59
2016-02-19T06:25:31.504Z,71.5
2016-02-19T06:26:31.476Z,71.4
2016-02-19T06:27:31.446Z,71.59
2016-02-19T06:28:31.418Z,71.59
2016-02-19T06:29:31.390Z,71.5
2016-02-19T06:30:31.345Z,71.59
2016-02-19T06:31:31.317Z,71.62
2016-02-19T06:32:31.288Z,71.59
2016-02-19T06:33:31.259Z,71.62
2016-02-19T06:34:31.247Z,71.53
2016-02-19T06:35:31.202Z,71.81
2016-02-19T06:36:31.174Z,71.81
2016-02-19T06:37:31.145Z,71.91
2016-02-19T06:38:31.117Z,71.53
2016-02-19T06:39:31.089Z,71.72
2016-02-19T06:40:31.060Z,71.53
2016-02-19T06:41:31.031Z,71.62
2016-02-19T06:42:31.003Z,71.62
2016-02-19T06:43:30.958Z,71.53
2016-02-19T06:45:57.794Z,71.78
2016-02-19T06:46:57.751Z,71.62
2016-02-19T06:47:57.706Z,71.62
2016-02-19T06:48:57.678Z,71.62
2016-02-19T06:49:57.665Z,71.72
2016-02-19T06:50:57.621Z,71.53
2016-02-19T06:51:57.592Z,71.81
2016-02-19T06:52:57.563Z,71.81
2016-02-19T06:53:57.536Z,71.62
2016-02-19T06:54:57.507Z,71.62
2016-02-19T06:55:57.478Z,71.62
2016-02-19T06:56:57.449Z,71.81
2016-02-19T06:57:57.421Z,71.91
2016-02-19T06:58:57.393Z,71.62
2016-02-19T06:59:57.379Z,71.44
2016-02-19T07:00:57.335Z,71.62
2016-02-19T07:01:57.291Z,71.72
2016-02-19T07:02:57.278Z,71.72
2016-02-19T07:03:57.234Z,71.72
2016-02-19T07:04:57.210Z,71.81
2016-02-19T07:05:57.182Z,71.62
2016-02-19T07:06:57.153Z,71.62
2016-02-19T07:07:57.125Z,71.62
2016-02-19T07:08:57.096Z,71.62
2016-02-19T07:09:57.067Z,71.44
2016-02-19T07:10:57.039Z,71.25
2016-02-19T07:11:56.995Z,71.25
2016-02-19T07:12:56.981Z,71.44
2016-02-19T07:13:56.953Z,71.53
2016-02-19T07:14:56.908Z,71.53
2016-02-19T07:15:56.881Z,71.62
2016-02-19T07:16:56.852Z,71.44
2016-02-19T07:17:56.823Z,71.81
2016-02-19T07:18:56.794Z,71.72
2016-02-19T07:19:56.782Z,71.81
2016-02-19T07:20:56.738Z,71.72
2016-02-19T07:21:56.710Z,71.72
2016-02-19T07:22:56.681Z,71.72
2016-02-19T07:23:56.652Z,71.72
2016-02-19T07:24:56.623Z,71.91
2016-02-19T07:25:56.596Z,72
2016-02-19T07:26:56.566Z,71.72
2016-02-19T07:27:56.554Z,71.62
2016-02-19T07:28:56.493Z,71.44
2016-02-19T07:29:56.465Z,71.62
2016-02-19T07:30:56.452Z,71.53
2016-02-19T07:31:56.407Z,71.62
2016-02-19T07:32:56.380Z,71.44
2016-02-19T07:33:56.367Z,71.44
2016-02-19T07:34:56.322Z,71.53
2016-02-19T07:35:56.293Z,71.34
2016-02-19T07:36:56.265Z,71.25
2016-02-19T07:37:56.237Z,71.06
2016-02-19T07:38:56.208Z,71.34
2016-02-19T07:39:56.179Z,71.25
2016-02-19T07:40:56.151Z,71.15
2016-02-19T07:41:56.122Z,71.25
2016-02-19T07:42:56.094Z,71.44
2016-02-19T07:43:56.065Z,70.97
2016-02-19T07:44:56.036Z,70.87
2016-02-19T07:45:56.008Z,70.97
2016-02-19T07:46:55.980Z,70.87
2016-02-19T07:47:55.951Z,70.97
2016-02-19T07:48:55.922Z,70.68
2016-02-19T07:49:55.893Z,70.58
2016-02-19T07:50:55.866Z,70.58
2016-02-19T07:51:55.836Z,70.68
2016-02-19T07:52:55.808Z,70.78
2016-02-19T07:53:55.780Z,70.2
2016-02-19T07:54:55.751Z,70.3
2016-02-19T07:55:55.738Z,70.3
2016-02-19T07:56:55.679Z,70.39
2016-02-19T07:57:55.666Z,70.49
2016-02-19T07:58:55.637Z,70.49
2016-02-19T07:59:55.608Z,70.49
2016-02-19T08:00:55.564Z,70.39
2016-02-19T08:01:55.535Z,70.39
2016-02-19T08:02:55.523Z,70.39
2016-02-19T08:03:55.478Z,70.58
2016-02-19T08:04:55.466Z,70.39
2016-02-19T08:05:55.426Z,70.78
2016-02-19T08:06:55.429Z,70.49
2016-02-19T08:07:55.369Z,70.3
2016-02-19T08:08:55.340Z,70.58
2016-02-19T08:09:55.311Z,70.11
2016-02-19T08:10:55.283Z,70.62
2016-02-19T08:11:55.255Z,70.49
2016-02-19T08:12:55.226Z,70.53
2016-02-19T08:13:55.197Z,70.05
2016-02-19T08:14:55.356Z,70.34
2016-02-19T08:15:55.141Z,70.34
2016-02-19T08:16:55.128Z,70.34
2016-02-19T08:17:55.081Z,70.15
2016-02-19T08:18:55.052Z,70.24
2016-02-19T08:19:55.023Z,70.15
2016-02-19T08:20:54.995Z,69.96
2016-02-19T08:21:54.966Z,70.34
2016-02-19T08:22:54.938Z,69.86
2016-02-19T08:23:54.910Z,70.15
2016-02-19T08:24:54.896Z,69.86
2016-02-19T08:25:54.868Z,69.86
2016-02-19T08:26:54.840Z,69.86
2016-02-19T08:27:54.810Z,69.86
2016-02-19T08:28:54.782Z,70.24
2016-02-19T08:29:54.753Z,70.34
2016-02-19T08:30:54.726Z,69.86
2016-02-19T08:31:54.696Z,69.86
2016-02-19T08:32:54.715Z,69.96
2016-02-19T08:33:54.640Z,69.96
2016-02-19T08:34:54.611Z,70.24
2016-02-19T08:35:54.660Z,69.57
2016-02-19T08:36:54.554Z,69.67
2016-02-19T08:37:54.541Z,69.77
2016-02-19T08:38:54.497Z,69.57
2016-02-19T08:39:54.467Z,69.57
2016-02-19T08:40:54.455Z,69.57
2016-02-19T08:41:54.426Z,69.77
2016-02-19T08:42:54.382Z,69.48
2016-02-19T08:43:54.370Z,69.48
2016-02-19T08:44:54.341Z,69.86
2016-02-19T08:45:54.312Z,69.48
2016-02-19T08:46:54.283Z,69.48
2016-02-19T08:47:54.255Z,69.2
2016-02-19T08:48:54.227Z,69.48
2016-02-19T08:49:54.198Z,69.57
2016-02-19T08:50:54.169Z,69.67
2016-02-19T08:51:54.141Z,69.67
2016-02-19T08:52:54.127Z,69.61
2016-02-19T08:53:54.084Z,69.52
2016-02-19T08:54:54.071Z,69.42
2016-02-19T08:55:54.043Z,69.42
2016-02-19T08:56:54.013Z,69.57
2016-02-19T08:57:53.985Z,69.71
2016-02-19T08:58:53.957Z,69.52
2016-02-19T08:59:53.928Z,69.04
2016-02-19T09:00:53.899Z,69.13
2016-02-19T09:01:53.871Z,69.52
2016-02-19T09:02:53.842Z,69.13
2016-02-19T09:03:53.814Z,69.52
2016-02-19T09:04:53.801Z,69.42
2016-02-19T09:05:53.773Z,69.71
2016-02-19T09:06:53.743Z,68.76
2016-02-19T09:07:53.715Z,69.04
2016-02-19T09:08:53.687Z,69.04
2016-02-19T09:09:53.658Z,68.95
2016-02-19T09:10:53.645Z,69.04
2016-02-19T09:11:53.601Z,69.13
2016-02-19T09:12:53.573Z,69.13
2016-02-19T09:13:53.559Z,69.23
2016-02-19T09:14:53.531Z,68.48
2016-02-19T09:15:53.502Z,68.76
2016-02-19T09:16:53.474Z,68.85
2016-02-19T09:17:53.444Z,68.76
2016-02-19T09:18:53.417Z,68.57
2016-02-19T09:19:53.403Z,68.48
2016-02-19T09:20:53.374Z,68.48
2016-02-19T09:21:53.346Z,68.48
2016-02-19T09:22:53.318Z,68.38
2016-02-19T09:23:53.883Z,67.94
2016-02-19T09:24:53.261Z,68.41
2016-02-19T09:25:53.248Z,68.04
2016-02-19T09:26:53.219Z,67.75
2016-02-19T09:27:53.190Z,67.75
2016-02-19T09:28:53.163Z,67.94
2016-02-19T09:29:53.134Z,67.9
2016-02-19T09:30:53.104Z,68.04
2016-02-19T09:31:53.076Z,68
2016-02-19T09:32:53.063Z,67.9
2016-02-19T09:33:53.035Z,67.9
2016-02-19T09:34:53.007Z,67.62
2016-02-19T09:35:52.993Z,67.81
2016-02-19T09:36:53.012Z,67.75
2016-02-19T09:37:52.936Z,67.75
2016-02-19T09:38:52.909Z,67.65
2016-02-19T09:39:52.879Z,67.75
2016-02-19T09:40:52.850Z,67.46
2016-02-19T09:41:52.822Z,67.46
2016-02-19T09:42:52.809Z,67.46
2016-02-19T09:43:52.780Z,67.65
2016-02-19T09:44:52.753Z,67.65
2016-02-19T09:45:52.723Z,67.46
2016-02-19T09:46:52.694Z,67.37
2016-02-19T09:47:52.666Z,66.8
2016-02-19T09:48:52.653Z,66.99
2016-02-19T09:49:52.625Z,66.71
2016-02-19T09:50:52.611Z,66.64
2016-02-19T09:51:52.568Z,66.27
2016-02-19T09:52:52.555Z,66.8
2016-02-19T09:53:52.526Z,66.17
2016-02-19T09:54:52.498Z,66.42
2016-02-19T09:55:52.469Z,66.33
2016-02-19T09:56:52.487Z,66.33
2016-02-19T09:57:52.427Z,66.33
2016-02-19T09:58:52.399Z,66.14
2016-02-19T09:59:52.371Z,66.33
2016-02-19T10:00:52.342Z,66.33
2016-02-19T10:01:52.329Z,66.42
2016-02-19T10:02:52.301Z,66.42
2016-02-19T10:03:52.271Z,66.14
2016-02-19T10:04:52.243Z,66.64
2016-02-19T10:05:52.215Z,66.04
2016-02-19T10:06:52.201Z,65.85
2016-02-19T10:07:52.174Z,66.23
2016-02-19T10:08:52.145Z,66.04
2016-02-19T10:09:52.117Z,65.85
2016-02-19T10:10:52.103Z,66.23
2016-02-19T10:11:52.075Z,66.04
2016-02-19T10:12:52.045Z,65.95
2016-02-19T10:13:52.018Z,66.04
2016-02-19T10:14:51.989Z,66.04
2016-02-19T10:15:51.976Z,66.61
2016-02-19T10:16:51.947Z,66.33
2016-02-19T10:17:51.919Z,66.42
2016-02-19T10:18:51.891Z,66.61
2016-02-19T10:19:51.877Z,66.23
2016-02-19T10:20:51.849Z,65.95
2016-02-19T10:21:51.820Z,65.95
2016-02-19T10:22:51.791Z,66.33
2016-02-19T10:23:51.780Z,66.52
2016-02-19T10:24:51.797Z,66.52
2016-02-19T10:25:51.721Z,66.71
2016-02-19T10:26:51.694Z,66.52
2016-02-19T10:27:51.665Z,66.52
2016-02-19T10:28:51.652Z,66.61
2016-02-19T10:29:51.623Z,66.14
2016-02-19T10:30:51.594Z,66.33
2016-02-19T10:31:51.566Z,66.61
2016-02-19T10:32:51.554Z,66.23
2016-02-19T10:33:51.525Z,66.42
2016-02-19T10:34:51.496Z,66.33
2016-02-19T10:35:51.482Z,66.36
2016-02-19T10:36:51.454Z,66.46
2016-02-19T10:37:51.426Z,66.08
2016-02-19T10:38:51.397Z,66.08
2016-02-19T10:39:51.431Z,65.98
2016-02-19T10:40:51.356Z,66.17
2016-02-19T10:41:51.327Z,65.31
2016-02-19T10:42:51.299Z,65.22
2016-02-19T10:43:51.270Z,65.12
2016-02-19T10:44:51.256Z,65.31
2016-02-19T10:45:51.229Z,65.41
2016-02-19T10:46:51.200Z,65.5
2016-02-19T10:47:51.172Z,65.31
2016-02-19T10:48:51.158Z,65.03
2016-02-19T10:49:51.130Z,65.12
2016-02-19T10:50:51.102Z,65.12
2016-02-19T10:51:51.089Z,64.75
2016-02-19T10:52:51.061Z,64.56
2016-02-19T10:53:51.031Z,64.97
2016-02-19T10:54:51.003Z,64.75
2016-02-19T10:55:50.991Z,64.17
2016-02-19T10:56:50.961Z,64.37
2016-02-19T10:57:50.932Z,64.75
2016-02-19T10:58:50.904Z,64.27
2016-02-19T10:59:50.891Z,64.37
2016-02-19T11:00:50.863Z,64.08
2016-02-19T11:01:50.835Z,64.08
2016-02-19T11:02:50.821Z,63.92
2016-02-19T11:03:50.792Z,63.92
2016-02-19T11:04:50.780Z,63.73
2016-02-19T11:05:50.751Z,63.92
2016-02-19T11:06:50.722Z,63.79
2016-02-19T11:07:50.694Z,63.98
2016-02-19T11:08:50.665Z,63.92
2016-02-19T11:09:50.653Z,64.02
2016-02-19T11:10:50.624Z,63.54
2016-02-19T11:11:50.595Z,63.64
2016-02-19T11:12:50.567Z,63.54
2016-02-19T11:13:50.554Z,63.64
2016-02-19T11:14:50.525Z,63.64
2016-02-19T11:15:50.497Z,63.54
2016-02-19T11:16:50.484Z,62.97
2016-02-19T11:17:50.456Z,63.17
2016-02-19T11:18:50.427Z,63.64
2016-02-19T11:19:50.414Z,63.26
2016-02-19T11:20:50.386Z,63.73
2016-02-19T11:21:50.356Z,63.54
2016-02-19T11:22:50.344Z,63.26
2016-02-19T11:23:50.315Z,63.73
2016-02-19T11:24:50.286Z,63.45
2016-02-19T11:25:50.274Z,63.54
2016-02-19T11:26:50.245Z,63.26
2016-02-19T11:27:50.216Z,63.35
2016-02-19T11:28:50.204Z,63.17
2016-02-19T11:29:50.175Z,63.07
2016-02-19T11:30:50.162Z,63.17
2016-02-19T11:31:50.118Z,62.97
2016-02-19T11:32:50.105Z,62.97
2016-02-19T11:33:50.076Z,62.88
2016-02-19T11:34:50.063Z,62.88
2016-02-19T11:35:50.035Z,63.17
2016-02-19T11:36:50.006Z,63.45
2016-02-19T11:37:49.994Z,63.64
2016-02-19T11:38:49.965Z,63.54
2016-02-19T11:39:49.936Z,63.64
2016-02-19T11:40:49.924Z,63.54
2016-02-19T11:41:49.895Z,63.51
2016-02-19T11:42:49.866Z,64.02
2016-02-19T11:43:49.837Z,63.83
2016-02-19T11:44:49.809Z,64.02
2016-02-19T11:45:49.795Z,63.98
2016-02-19T11:46:49.768Z,64.46
2016-02-19T11:47:49.739Z,64.4
2016-02-19T11:48:49.725Z,64.3
2016-02-19T11:49:49.698Z,64.4
2016-02-19T11:50:49.669Z,64.3
2016-02-19T11:51:49.640Z,64.11
2016-02-19T11:52:49.627Z,64.21
2016-02-19T11:53:49.599Z,64.21
2016-02-19T11:54:49.570Z,64.17
2016-02-19T11:55:49.542Z,64.3
2016-02-19T11:56:49.513Z,64.3
2016-02-19T11:57:49.500Z,64.21
2016-02-19T11:58:49.472Z,64.4
2016-02-19T11:59:49.443Z,64.4
2016-02-19T12:00:49.430Z,64.78
2016-02-19T12:01:49.402Z,64.65
2016-02-19T12:02:49.373Z,64.94
2016-02-19T12:03:49.345Z,65.12
2016-02-19T12:04:49.332Z,65.6
2016-02-19T12:05:49.304Z,65.69
2016-02-19T12:06:49.275Z,65.98
2016-02-19T12:07:49.246Z,66.08
2016-02-19T12:08:49.233Z,66.36
2016-02-19T12:09:49.204Z,66.36
2016-02-19T12:10:49.176Z,66.55
2016-02-19T12:11:49.162Z,66.64
2016-02-19T12:12:49.135Z,67.21
2016-02-19T12:13:49.106Z,67.21
2016-02-19T12:14:49.077Z,67.12
2016-02-19T12:15:49.049Z,66.74
2016-02-19T12:16:49.036Z,67.21
2016-02-19T12:17:49.006Z,67.4
2016-02-19T12:18:48.979Z,68.07
2016-02-19T12:19:48.950Z,68.26
2016-02-19T12:20:48.922Z,68.16
2016-02-19T12:21:48.909Z,68.35
2016-02-19T12:22:48.880Z,68.54
2016-02-19T12:23:48.852Z,68.73
2016-02-19T12:24:48.822Z,69.21
2016-02-19T12:25:48.810Z,69.68
2016-02-19T12:26:48.780Z,69.49
2016-02-19T12:27:48.752Z,69.87
2016-02-19T12:28:48.740Z,69.96
2016-02-19T12:29:48.711Z,70.63
2016-02-19T12:30:48.683Z,70.73
2016-02-19T12:31:48.654Z,70.63
2016-02-19T12:32:48.626Z,71.11
2016-02-19T12:33:48.613Z,71.48
2016-02-19T12:34:48.584Z,71.58
2016-02-19T12:35:48.555Z,71.86
2016-02-19T12:36:48.527Z,71.67
2016-02-19T12:37:48.515Z,71.96
2016-02-19T12:38:48.485Z,72.06
2016-02-19T12:39:48.457Z,72.44
2016-02-19T12:40:48.444Z,72.53
2016-02-19T12:41:48.415Z,72.81
2016-02-19T12:42:48.386Z,72.53
2016-02-19T12:43:48.359Z,72.91
2016-02-19T12:44:48.329Z,73
2016-02-19T12:45:48.317Z,72.91
2016-02-19T12:46:48.289Z,72.91
2016-02-19T12:47:48.259Z,73.19
2016-02-19T12:48:48.231Z,73.1
2016-02-19T12:49:48.203Z,73.19
2016-02-19T12:50:48.189Z,73.38
2016-02-19T12:51:48.161Z,73.38
2016-02-19T12:52:48.133Z,74.05
2016-02-19T12:53:48.103Z,73.72
2016-02-19T12:54:48.076Z,74.01
2016-02-19T12:55:48.063Z,73.92
2016-02-19T12:56:48.033Z,74.3
2016-02-19T12:57:48.005Z,74.49